sensor_id;sensor_type;location;lat;lon;timestamp;temperature;humidity
18575;DHT22;9417;16.484;102.872;2023-04-03T00:01:23;27.60;79.10
18575;DHT22;9417;16.484;102.872;2023-04-03T00:03:30;27.60;78.70
18575;DHT22;9417;16.484;102.872;2023-04-03T00:05:38;27.70;78.90
18575;DHT22;9417;16.484;102.872;2023-04-03T00:08:02;27.70;78.60
18575;DHT22;9417;16.484;102.872;2023-04-03T00:10:12;27.70;78.60
18575;DHT22;9417;16.484;102.872;2023-04-03T00:12:20;27.80;78.10
18575;DHT22;9417;16.484;102.872;2023-04-03T00:14:28;27.80;77.70
18575;DHT22;9417;16.484;102.872;2023-04-03T00:16:37;27.90;77.30
18575;DHT22;9417;16.484;102.872;2023-04-03T00:18:44;28.00;77.00
18575;DHT22;9417;16.484;102.872;2023-04-03T00:20:52;28.00;76.60
18575;DHT22;9417;16.484;102.872;2023-04-03T00:22:59;28.10;76.30
18575;DHT22;9417;16.484;102.872;2023-04-03T00:25:09;28.20;76.20
18575;DHT22;9417;16.484;102.872;2023-04-03T00:27:16;28.20;76.20
18575;DHT22;9417;16.484;102.872;2023-04-03T00:29:24;28.30;76.00
18575;DHT22;9417;16.484;102.872;2023-04-03T00:31:49;28.30;75.90
18575;DHT22;9417;16.484;102.872;2023-04-03T00:33:56;28.40;75.40
18575;DHT22;9417;16.484;102.872;2023-04-03T00:36:14;28.40;74.90
18575;DHT22;9417;16.484;102.872;2023-04-03T00:38:22;28.50;74.20
18575;DHT22;9417;16.484;102.872;2023-04-03T00:40:35;28.50;73.60
18575;DHT22;9417;16.484;102.872;2023-04-03T00:42:44;28.60;73.30
18575;DHT22;9417;16.484;102.872;2023-04-03T00:47:35;28.70;73.10
18575;DHT22;9417;16.484;102.872;2023-04-03T00:49:43;28.70;72.90
18575;DHT22;9417;16.484;102.872;2023-04-03T00:51:51;28.80;72.70
18575;DHT22;9417;16.484;102.872;2023-04-03T00:54:02;28.80;72.70
18575;DHT22;9417;16.484;102.872;2023-04-03T00:56:13;28.80;72.70
18575;DHT22;9417;16.484;102.872;2023-04-03T00:58:25;28.90;72.50
18575;DHT22;9417;16.484;102.872;2023-04-03T01:00:36;29.00;72.40
18575;DHT22;9417;16.484;102.872;2023-04-03T01:02:44;29.00;72.20
18575;DHT22;9417;16.484;102.872;2023-04-03T01:04:52;29.10;72.20
18575;DHT22;9417;16.484;102.872;2023-04-03T01:07:02;29.20;72.10
18575;DHT22;9417;16.484;102.872;2023-04-03T01:09:11;29.30;72.00
18575;DHT22;9417;16.484;102.872;2023-04-03T01:11:20;29.20;71.90
18575;DHT22;9417;16.484;102.872;2023-04-03T01:13:30;29.30;71.80
18575;DHT22;9417;16.484;102.872;2023-04-03T01:15:39;29.40;71.70
18575;DHT22;9417;16.484;102.872;2023-04-03T01:17:48;29.40;71.50
18575;DHT22;9417;16.484;102.872;2023-04-03T01:22:42;29.50;71.90
18575;DHT22;9417;16.484;102.872;2023-04-03T01:24:53;29.50;71.20
18575;DHT22;9417;16.484;102.872;2023-04-03T01:27:06;29.60;70.90
18575;DHT22;9417;16.484;102.872;2023-04-03T01:29:14;29.60;70.60
18575;DHT22;9417;16.484;102.872;2023-04-03T01:31:24;29.70;70.40
18575;DHT22;9417;16.484;102.872;2023-04-03T01:33:34;29.80;70.30
18575;DHT22;9417;16.484;102.872;2023-04-03T01:35:41;29.80;70.20
18575;DHT22;9417;16.484;102.872;2023-04-03T01:37:49;29.80;69.60
18575;DHT22;9417;16.484;102.872;2023-04-03T01:39:56;29.80;69.60
18575;DHT22;9417;16.484;102.872;2023-04-03T01:42:03;29.90;69.60
18575;DHT22;9417;16.484;102.872;2023-04-03T01:44:15;29.90;70.20
18575;DHT22;9417;16.484;102.872;2023-04-03T01:46:22;29.90;70.50
18575;DHT22;9417;16.484;102.872;2023-04-03T01:48:29;30.00;70.30
18575;DHT22;9417;16.484;102.872;2023-04-03T01:50:38;30.00;70.00
18575;DHT22;9417;16.484;102.872;2023-04-03T01:52:45;30.10;69.60
18575;DHT22;9417;16.484;102.872;2023-04-03T01:54:52;30.10;69.40
18575;DHT22;9417;16.484;102.872;2023-04-03T01:57:00;30.20;69.80
18575;DHT22;9417;16.484;102.872;2023-04-03T01:59:07;30.20;70.60
18575;DHT22;9417;16.484;102.872;2023-04-03T02:01:15;30.30;70.90
18575;DHT22;9417;16.484;102.872;2023-04-03T02:03:22;30.30;71.50
18575;DHT22;9417;16.484;102.872;2023-04-03T02:05:30;30.30;70.40
18575;DHT22;9417;16.484;102.872;2023-04-03T02:07:38;30.20;70.30
18575;DHT22;9417;16.484;102.872;2023-04-03T02:09:46;30.30;70.70
18575;DHT22;9417;16.484;102.872;2023-04-03T02:11:53;30.30;70.40
18575;DHT22;9417;16.484;102.872;2023-04-03T02:14:01;30.40;69.80
18575;DHT22;9417;16.484;102.872;2023-04-03T02:16:09;30.50;69.70
18575;DHT22;9417;16.484;102.872;2023-04-03T02:18:18;30.60;69.10
18575;DHT22;9417;16.484;102.872;2023-04-03T02:20:25;30.70;68.70
18575;DHT22;9417;16.484;102.872;2023-04-03T02:22:33;30.80;68.30
18575;DHT22;9417;16.484;102.872;2023-04-03T02:24:41;30.80;67.60
18575;DHT22;9417;16.484;102.872;2023-04-03T02:26:49;31.00;66.60
18575;DHT22;9417;16.484;102.872;2023-04-03T02:28:56;31.00;65.40
18575;DHT22;9417;16.484;102.872;2023-04-03T02:31:04;31.10;64.40
18575;DHT22;9417;16.484;102.872;2023-04-03T02:33:13;31.20;64.20
18575;DHT22;9417;16.484;102.872;2023-04-03T02:35:21;31.30;63.50
18575;DHT22;9417;16.484;102.872;2023-04-03T02:37:30;31.30;63.30
18575;DHT22;9417;16.484;102.872;2023-04-03T02:39:37;31.40;63.50
18575;DHT22;9417;16.484;102.872;2023-04-03T02:41:46;31.50;63.70
18575;DHT22;9417;16.484;102.872;2023-04-03T02:43:59;31.50;63.60
18575;DHT22;9417;16.484;102.872;2023-04-03T02:46:08;31.60;63.60
18575;DHT22;9417;16.484;102.872;2023-04-03T02:48:15;31.70;63.20
18575;DHT22;9417;16.484;102.872;2023-04-03T02:50:23;31.80;62.90
18575;DHT22;9417;16.484;102.872;2023-04-03T02:52:30;31.80;62.70
18575;DHT22;9417;16.484;102.872;2023-04-03T02:54:37;31.90;62.40
18575;DHT22;9417;16.484;102.872;2023-04-03T02:56:47;32.00;62.10
18575;DHT22;9417;16.484;102.872;2023-04-03T02:58:55;32.00;61.60
18575;DHT22;9417;16.484;102.872;2023-04-03T03:01:02;32.10;61.40
18575;DHT22;9417;16.484;102.872;2023-04-03T03:03:10;32.20;61.10
18575;DHT22;9417;16.484;102.872;2023-04-03T03:05:18;32.20;60.80
18575;DHT22;9417;16.484;102.872;2023-04-03T03:07:26;32.30;60.60
18575;DHT22;9417;16.484;102.872;2023-04-03T03:09:33;32.30;60.40
18575;DHT22;9417;16.484;102.872;2023-04-03T03:11:40;32.40;60.10
18575;DHT22;9417;16.484;102.872;2023-04-03T03:13:49;32.50;60.00
18575;DHT22;9417;16.484;102.872;2023-04-03T03:15:56;32.50;60.20
18575;DHT22;9417;16.484;102.872;2023-04-03T03:18:05;32.60;60.00
18575;DHT22;9417;16.484;102.872;2023-04-03T03:20:13;32.70;59.80
18575;DHT22;9417;16.484;102.872;2023-04-03T03:22:21;32.80;59.10
18575;DHT22;9417;16.484;102.872;2023-04-03T03:24:28;32.80;58.80
18575;DHT22;9417;16.484;102.872;2023-04-03T03:26:36;32.90;58.50
18575;DHT22;9417;16.484;102.872;2023-04-03T03:28:43;33.10;59.00
18575;DHT22;9417;16.484;102.872;2023-04-03T03:30:53;33.20;59.30
18575;DHT22;9417;16.484;102.872;2023-04-03T03:33:00;33.30;59.00
18575;DHT22;9417;16.484;102.872;2023-04-03T03:35:08;33.30;58.40
18575;DHT22;9417;16.484;102.872;2023-04-03T03:37:16;33.40;57.90
18575;DHT22;9417;16.484;102.872;2023-04-03T03:39:24;33.50;58.50
18575;DHT22;9417;16.484;102.872;2023-04-03T03:41:31;33.60;58.70
18575;DHT22;9417;16.484;102.872;2023-04-03T03:43:40;33.60;58.80
18575;DHT22;9417;16.484;102.872;2023-04-03T03:45:53;33.70;58.30
18575;DHT22;9417;16.484;102.872;2023-04-03T03:48:02;33.80;58.40
18575;DHT22;9417;16.484;102.872;2023-04-03T03:50:10;33.80;58.40
18575;DHT22;9417;16.484;102.872;2023-04-03T03:52:17;33.90;58.50
18575;DHT22;9417;16.484;102.872;2023-04-03T03:54:25;34.00;58.20
18575;DHT22;9417;16.484;102.872;2023-04-03T03:56:32;34.00;57.70
18575;DHT22;9417;16.484;102.872;2023-04-03T03:58:39;34.00;57.50
18575;DHT22;9417;16.484;102.872;2023-04-03T04:00:46;34.00;56.80
18575;DHT22;9417;16.484;102.872;2023-04-03T04:02:56;34.00;57.40
18575;DHT22;9417;16.484;102.872;2023-04-03T04:05:06;34.10;57.40
18575;DHT22;9417;16.484;102.872;2023-04-03T04:07:13;34.20;57.10
18575;DHT22;9417;16.484;102.872;2023-04-03T04:09:20;34.20;56.60
18575;DHT22;9417;16.484;102.872;2023-04-03T04:11:28;34.20;55.90
18575;DHT22;9417;16.484;102.872;2023-04-03T04:13:35;34.20;56.40
18575;DHT22;9417;16.484;102.872;2023-04-03T04:15:43;34.20;56.30
18575;DHT22;9417;16.484;102.872;2023-04-03T04:17:52;34.20;55.80
18575;DHT22;9417;16.484;102.872;2023-04-03T04:20:01;34.30;56.00
18575;DHT22;9417;16.484;102.872;2023-04-03T04:22:09;34.40;55.50
18575;DHT22;9417;16.484;102.872;2023-04-03T04:24:16;34.40;55.30
18575;DHT22;9417;16.484;102.872;2023-04-03T04:26:25;34.40;55.90
18575;DHT22;9417;16.484;102.872;2023-04-03T04:28:33;34.50;56.10
18575;DHT22;9417;16.484;102.872;2023-04-03T04:30:41;34.60;56.10
18575;DHT22;9417;16.484;102.872;2023-04-03T04:32:50;34.70;56.30
18575;DHT22;9417;16.484;102.872;2023-04-03T04:34:59;34.80;55.70
18575;DHT22;9417;16.484;102.872;2023-04-03T04:37:08;34.80;55.30
18575;DHT22;9417;16.484;102.872;2023-04-03T04:39:15;34.90;55.00
18575;DHT22;9417;16.484;102.872;2023-04-03T04:41:23;35.00;55.60
18575;DHT22;9417;16.484;102.872;2023-04-03T04:43:31;35.00;54.90
18575;DHT22;9417;16.484;102.872;2023-04-03T04:45:38;35.20;54.20
18575;DHT22;9417;16.484;102.872;2023-04-03T04:47:45;35.20;53.40
18575;DHT22;9417;16.484;102.872;2023-04-03T04:49:53;35.20;54.00
18575;DHT22;9417;16.484;102.872;2023-04-03T04:52:01;35.30;53.90
18575;DHT22;9417;16.484;102.872;2023-04-03T04:54:10;35.40;52.80
18575;DHT22;9417;16.484;102.872;2023-04-03T04:56:17;35.40;52.80
18575;DHT22;9417;16.484;102.872;2023-04-03T04:58:25;35.50;52.30
18575;DHT22;9417;16.484;102.872;2023-04-03T05:00:32;35.50;51.80
18575;DHT22;9417;16.484;102.872;2023-04-03T05:02:40;35.50;51.00
18575;DHT22;9417;16.484;102.872;2023-04-03T05:04:48;35.60;51.00
18575;DHT22;9417;16.484;102.872;2023-04-03T05:07:03;35.70;51.10
18575;DHT22;9417;16.484;102.872;2023-04-03T05:09:12;35.80;51.00
18575;DHT22;9417;16.484;102.872;2023-04-03T05:11:21;35.80;51.10
18575;DHT22;9417;16.484;102.872;2023-04-03T05:13:28;35.90;51.10
18575;DHT22;9417;16.484;102.872;2023-04-03T05:15:35;36.00;51.30
18575;DHT22;9417;16.484;102.872;2023-04-03T05:17:44;36.00;50.70
18575;DHT22;9417;16.484;102.872;2023-04-03T05:19:51;36.10;50.00
18575;DHT22;9417;16.484;102.872;2023-04-03T05:22:03;36.20;49.50
18575;DHT22;9417;16.484;102.872;2023-04-03T05:24:11;36.20;49.20
18575;DHT22;9417;16.484;102.872;2023-04-03T05:26:19;36.30;49.00
18575;DHT22;9417;16.484;102.872;2023-04-03T05:28:27;36.30;48.60
18575;DHT22;9417;16.484;102.872;2023-04-03T05:30:33;36.40;48.60
18575;DHT22;9417;16.484;102.872;2023-04-03T05:32:41;36.40;48.50
18575;DHT22;9417;16.484;102.872;2023-04-03T05:35:01;36.40;47.90
18575;DHT22;9417;16.484;102.872;2023-04-03T05:37:10;36.50;47.60
18575;DHT22;9417;16.484;102.872;2023-04-03T05:39:18;36.50;47.50
18575;DHT22;9417;16.484;102.872;2023-04-03T05:41:25;36.60;47.70
18575;DHT22;9417;16.484;102.872;2023-04-03T05:43:32;36.70;47.90
18575;DHT22;9417;16.484;102.872;2023-04-03T05:45:45;36.70;46.20
18575;DHT22;9417;16.484;102.872;2023-04-03T05:47:55;36.70;46.50
18575;DHT22;9417;16.484;102.872;2023-04-03T05:50:02;36.70;47.40
18575;DHT22;9417;16.484;102.872;2023-04-03T05:52:20;36.80;47.40
18575;DHT22;9417;16.484;102.872;2023-04-03T05:54:28;36.80;46.30
18575;DHT22;9417;16.484;102.872;2023-04-03T05:56:49;36.70;48.20
18575;DHT22;9417;16.484;102.872;2023-04-03T05:58:57;36.50;47.80
18575;DHT22;9417;16.484;102.872;2023-04-03T06:01:05;36.40;47.20
18575;DHT22;9417;16.484;102.872;2023-04-03T06:03:12;36.40;47.20
18575;DHT22;9417;16.484;102.872;2023-04-03T06:05:20;36.40;47.00
18575;DHT22;9417;16.484;102.872;2023-04-03T06:07:30;36.60;46.80
18575;DHT22;9417;16.484;102.872;2023-04-03T06:09:37;36.60;46.70
18575;DHT22;9417;16.484;102.872;2023-04-03T06:11:44;36.50;46.30
18575;DHT22;9417;16.484;102.872;2023-04-03T06:13:53;36.30;46.70
18575;DHT22;9417;16.484;102.872;2023-04-03T06:16:00;36.00;47.20
18575;DHT22;9417;16.484;102.872;2023-04-03T06:18:10;35.80;47.10
18575;DHT22;9417;16.484;102.872;2023-04-03T06:20:18;35.80;47.20
18575;DHT22;9417;16.484;102.872;2023-04-03T06:22:25;36.00;47.50
18575;DHT22;9417;16.484;102.872;2023-04-03T06:24:36;36.20;47.40
18575;DHT22;9417;16.484;102.872;2023-04-03T06:26:43;36.40;47.00
18575;DHT22;9417;16.484;102.872;2023-04-03T06:28:51;36.50;46.60
18575;DHT22;9417;16.484;102.872;2023-04-03T06:30:58;36.70;46.80
18575;DHT22;9417;16.484;102.872;2023-04-03T06:33:06;36.80;46.00
18575;DHT22;9417;16.484;102.872;2023-04-03T06:35:13;36.90;45.10
18575;DHT22;9417;16.484;102.872;2023-04-03T06:37:22;37.10;44.30
18575;DHT22;9417;16.484;102.872;2023-04-03T06:39:30;37.10;43.10
18575;DHT22;9417;16.484;102.872;2023-04-03T06:41:39;37.10;43.60
18575;DHT22;9417;16.484;102.872;2023-04-03T06:43:46;36.90;43.20
18575;DHT22;9417;16.484;102.872;2023-04-03T06:45:53;36.80;42.70
18575;DHT22;9417;16.484;102.872;2023-04-03T06:48:01;36.90;42.50
18575;DHT22;9417;16.484;102.872;2023-04-03T06:50:10;36.90;41.50
18575;DHT22;9417;16.484;102.872;2023-04-03T06:52:18;37.00;41.10
18575;DHT22;9417;16.484;102.872;2023-04-03T06:54:26;37.10;41.10
18575;DHT22;9417;16.484;102.872;2023-04-03T06:56:33;37.20;41.20
18575;DHT22;9417;16.484;102.872;2023-04-03T06:58:43;37.30;40.80
18575;DHT22;9417;16.484;102.872;2023-04-03T07:00:51;37.30;40.30
18575;DHT22;9417;16.484;102.872;2023-04-03T07:02:58;37.20;40.60
18575;DHT22;9417;16.484;102.872;2023-04-03T07:05:06;37.10;40.40
18575;DHT22;9417;16.484;102.872;2023-04-03T07:07:13;37.00;40.70
18575;DHT22;9417;16.484;102.872;2023-04-03T07:09:22;37.00;40.70
18575;DHT22;9417;16.484;102.872;2023-04-03T07:11:29;37.10;40.70
18575;DHT22;9417;16.484;102.872;2023-04-03T07:13:37;37.30;40.20
18575;DHT22;9417;16.484;102.872;2023-04-03T07:15:46;37.40;41.10
18575;DHT22;9417;16.484;102.872;2023-04-03T07:17:53;37.50;42.10
18575;DHT22;9417;16.484;102.872;2023-04-03T07:20:00;37.70;42.20
18575;DHT22;9417;16.484;102.872;2023-04-03T07:22:20;37.70;42.10
18575;DHT22;9417;16.484;102.872;2023-04-03T07:24:27;37.80;41.90
18575;DHT22;9417;16.484;102.872;2023-04-03T07:26:34;37.80;41.90
18575;DHT22;9417;16.484;102.872;2023-04-03T07:28:41;37.80;42.60
18575;DHT22;9417;16.484;102.872;2023-04-03T07:30:52;37.70;43.60
18575;DHT22;9417;16.484;102.872;2023-04-03T07:33:00;37.60;43.80
18575;DHT22;9417;16.484;102.872;2023-04-03T07:35:07;37.40;43.80
18575;DHT22;9417;16.484;102.872;2023-04-03T07:37:14;37.20;43.90
18575;DHT22;9417;16.484;102.872;2023-04-03T07:39:22;37.00;44.20
18575;DHT22;9417;16.484;102.872;2023-04-03T07:41:29;36.90;44.30
18575;DHT22;9417;16.484;102.872;2023-04-03T07:43:36;37.00;44.10
18575;DHT22;9417;16.484;102.872;2023-04-03T07:45:44;37.10;44.10
18575;DHT22;9417;16.484;102.872;2023-04-03T07:47:53;37.30;43.80
18575;DHT22;9417;16.484;102.872;2023-04-03T07:50:01;37.30;43.50
18575;DHT22;9417;16.484;102.872;2023-04-03T07:52:08;37.30;43.30
18575;DHT22;9417;16.484;102.872;2023-04-03T07:54:15;37.10;43.30
18575;DHT22;9417;16.484;102.872;2023-04-03T07:56:22;36.90;43.10
18575;DHT22;9417;16.484;102.872;2023-04-03T07:58:30;36.80;43.30
18575;DHT22;9417;16.484;102.872;2023-04-03T08:00:38;36.60;44.00
18575;DHT22;9417;16.484;102.872;2023-04-03T08:02:52;36.50;44.30
18575;DHT22;9417;16.484;102.872;2023-04-03T08:04:59;36.30;44.60
18575;DHT22;9417;16.484;102.872;2023-04-03T08:07:07;36.20;44.80
18575;DHT22;9417;16.484;102.872;2023-04-03T08:09:15;36.10;45.10
18575;DHT22;9417;16.484;102.872;2023-04-03T08:11:22;36.00;45.80
18575;DHT22;9417;16.484;102.872;2023-04-03T08:13:31;35.80;46.90
18575;DHT22;9417;16.484;102.872;2023-04-03T08:15:39;35.70;47.60
18575;DHT22;9417;16.484;102.872;2023-04-03T08:17:46;35.60;48.00
18575;DHT22;9417;16.484;102.872;2023-04-03T08:19:55;35.50;48.60
18575;DHT22;9417;16.484;102.872;2023-04-03T08:22:03;35.40;49.10
18575;DHT22;9417;16.484;102.872;2023-04-03T08:24:10;35.30;49.60
18575;DHT22;9417;16.484;102.872;2023-04-03T08:26:19;35.20;49.90
18575;DHT22;9417;16.484;102.872;2023-04-03T08:28:27;35.10;50.40
18575;DHT22;9417;16.484;102.872;2023-04-03T08:30:35;35.00;50.50
18575;DHT22;9417;16.484;102.872;2023-04-03T08:32:43;35.00;51.70
18575;DHT22;9417;16.484;102.872;2023-04-03T08:34:50;34.90;53.20
18575;DHT22;9417;16.484;102.872;2023-04-03T08:36:59;34.80;53.70
18575;DHT22;9417;16.484;102.872;2023-04-03T08:39:06;34.70;49.70
18575;DHT22;9417;16.484;102.872;2023-04-03T08:41:18;34.60;49.10
18575;DHT22;9417;16.484;102.872;2023-04-03T08:43:31;34.50;49.00
18575;DHT22;9417;16.484;102.872;2023-04-03T08:45:45;34.40;47.60
18575;DHT22;9417;16.484;102.872;2023-04-03T08:47:57;34.30;47.40
18575;DHT22;9417;16.484;102.872;2023-04-03T08:50:11;34.00;46.80
18575;DHT22;9417;16.484;102.872;2023-04-03T08:52:20;33.80;47.10
18575;DHT22;9417;16.484;102.872;2023-04-03T08:54:31;33.20;47.50
18575;DHT22;9417;16.484;102.872;2023-04-03T08:56:39;32.90;48.40
18575;DHT22;9417;16.484;102.872;2023-04-03T08:58:50;32.60;50.00
18575;DHT22;9417;16.484;102.872;2023-04-03T09:01:00;32.20;51.40
18575;DHT22;9417;16.484;102.872;2023-04-03T09:03:13;32.00;52.20
18575;DHT22;9417;16.484;102.872;2023-04-03T09:05:24;31.60;53.70
18575;DHT22;9417;16.484;102.872;2023-04-03T09:07:43;31.40;54.20
18575;DHT22;9417;16.484;102.872;2023-04-03T09:09:52;31.20;55.40
18575;DHT22;9417;16.484;102.872;2023-04-03T09:12:06;30.90;55.40
18575;DHT22;9417;16.484;102.872;2023-04-03T09:14:26;30.90;55.50
18575;DHT22;9417;16.484;102.872;2023-04-03T09:16:42;30.90;55.60
18575;DHT22;9417;16.484;102.872;2023-04-03T09:18:56;30.90;55.80
18575;DHT22;9417;16.484;102.872;2023-04-03T09:21:12;30.90;55.70
18575;DHT22;9417;16.484;102.872;2023-04-03T09:23:27;31.00;55.10
18575;DHT22;9417;16.484;102.872;2023-04-03T09:25:37;31.10;55.20
18575;DHT22;9417;16.484;102.872;2023-04-03T09:27:45;31.20;55.00
18575;DHT22;9417;16.484;102.872;2023-04-03T09:29:54;31.20;54.60
18575;DHT22;9417;16.484;102.872;2023-04-03T09:32:02;31.30;54.50
18575;DHT22;9417;16.484;102.872;2023-04-03T09:34:22;31.40;54.40
18575;DHT22;9417;16.484;102.872;2023-04-03T09:36:44;31.40;53.70
18575;DHT22;9417;16.484;102.872;2023-04-03T09:39:07;31.50;53.80
18575;DHT22;9417;16.484;102.872;2023-04-03T09:41:17;31.60;53.80
18575;DHT22;9417;16.484;102.872;2023-04-03T09:43:27;31.50;54.40
18575;DHT22;9417;16.484;102.872;2023-04-03T09:45:36;31.50;55.10
18575;DHT22;9417;16.484;102.872;2023-04-03T09:47:43;31.50;55.20
18575;DHT22;9417;16.484;102.872;2023-04-03T09:49:50;31.40;55.90
18575;DHT22;9417;16.484;102.872;2023-04-03T09:51:57;31.50;57.00
18575;DHT22;9417;16.484;102.872;2023-04-03T09:54:30;31.60;58.40
18575;DHT22;9417;16.484;102.872;2023-04-03T09:56:37;31.70;61.10
18575;DHT22;9417;16.484;102.872;2023-04-03T09:58:46;31.70;61.50
18575;DHT22;9417;16.484;102.872;2023-04-03T10:00:58;31.70;61.50
18575;DHT22;9417;16.484;102.872;2023-04-03T10:03:24;31.80;62.10
18575;DHT22;9417;16.484;102.872;2023-04-03T10:05:36;31.90;63.50
18575;DHT22;9417;16.484;102.872;2023-04-03T10:07:43;31.90;60.70
18575;DHT22;9417;16.484;102.872;2023-04-03T10:10:19;31.90;60.60
18575;DHT22;9417;16.484;102.872;2023-04-03T10:12:28;31.80;60.40
18575;DHT22;9417;16.484;102.872;2023-04-03T10:14:37;31.80;60.40
18575;DHT22;9417;16.484;102.872;2023-04-03T10:16:50;31.80;60.50
18575;DHT22;9417;16.484;102.872;2023-04-03T10:19:06;31.80;61.20
18575;DHT22;9417;16.484;102.872;2023-04-03T10:21:29;31.90;62.20
18575;DHT22;9417;16.484;102.872;2023-04-03T10:23:41;31.90;62.80
18575;DHT22;9417;16.484;102.872;2023-04-03T10:26:00;31.80;60.70
18575;DHT22;9417;16.484;102.872;2023-04-03T10:28:12;31.60;60.50
18575;DHT22;9417;16.484;102.872;2023-04-03T10:30:34;31.50;60.80
18575;DHT22;9417;16.484;102.872;2023-04-03T10:32:52;31.50;61.00
18575;DHT22;9417;16.484;102.872;2023-04-03T10:35:10;31.50;61.50
18575;DHT22;9417;16.484;102.872;2023-04-03T10:37:24;31.50;61.60
18575;DHT22;9417;16.484;102.872;2023-04-03T10:39:39;31.50;61.50
18575;DHT22;9417;16.484;102.872;2023-04-03T10:42:00;31.50;61.40
18575;DHT22;9417;16.484;102.872;2023-04-03T10:44:28;31.40;61.70
18575;DHT22;9417;16.484;102.872;2023-04-03T10:46:40;31.40;61.50
18575;DHT22;9417;16.484;102.872;2023-04-03T10:48:58;31.40;62.00
18575;DHT22;9417;16.484;102.872;2023-04-03T10:51:18;31.40;62.10
18575;DHT22;9417;16.484;102.872;2023-04-03T10:53:34;31.40;62.30
18575;DHT22;9417;16.484;102.872;2023-04-03T10:55:50;31.40;62.30
18575;DHT22;9417;16.484;102.872;2023-04-03T10:58:02;31.40;62.20
18575;DHT22;9417;16.484;102.872;2023-04-03T11:00:17;31.30;62.90
18575;DHT22;9417;16.484;102.872;2023-04-03T11:02:29;31.30;63.40
18575;DHT22;9417;16.484;102.872;2023-04-03T11:04:37;31.20;64.00
18575;DHT22;9417;16.484;102.872;2023-04-03T11:06:50;31.20;65.10
18575;DHT22;9417;16.484;102.872;2023-04-03T11:09:01;31.20;64.20
18575;DHT22;9417;16.484;102.872;2023-04-03T11:11:15;31.20;63.60
18575;DHT22;9417;16.484;102.872;2023-04-03T11:13:30;31.10;63.90
18575;DHT22;9417;16.484;102.872;2023-04-03T11:15:39;31.00;65.40
18575;DHT22;9417;16.484;102.872;2023-04-03T11:17:50;30.90;64.80
18575;DHT22;9417;16.484;102.872;2023-04-03T11:20:04;30.90;64.50
18575;DHT22;9417;16.484;102.872;2023-04-03T11:22:23;30.90;66.40
18575;DHT22;9417;16.484;102.872;2023-04-03T11:24:33;30.90;67.10
18575;DHT22;9417;16.484;102.872;2023-04-03T11:26:43;30.90;67.10
18575;DHT22;9417;16.484;102.872;2023-04-03T11:28:58;30.80;67.80
18575;DHT22;9417;16.484;102.872;2023-04-03T11:31:19;30.90;67.40
18575;DHT22;9417;16.484;102.872;2023-04-03T11:33:51;30.80;67.30
18575;DHT22;9417;16.484;102.872;2023-04-03T11:36:03;30.80;69.00
18575;DHT22;9417;16.484;102.872;2023-04-03T11:38:30;30.70;69.10
18575;DHT22;9417;16.484;102.872;2023-04-03T11:40:41;30.60;70.00
18575;DHT22;9417;16.484;102.872;2023-04-03T11:42:52;30.60;69.90
18575;DHT22;9417;16.484;102.872;2023-04-03T11:45:35;30.50;68.70
18575;DHT22;9417;16.484;102.872;2023-04-03T11:47:48;30.50;69.80
18575;DHT22;9417;16.484;102.872;2023-04-03T11:49:59;30.50;69.60
18575;DHT22;9417;16.484;102.872;2023-04-03T11:52:10;30.40;70.10
18575;DHT22;9417;16.484;102.872;2023-04-03T11:54:47;30.40;70.00
18575;DHT22;9417;16.484;102.872;2023-04-03T11:56:54;30.30;69.00
18575;DHT22;9417;16.484;102.872;2023-04-03T11:59:22;30.30;68.10
18575;DHT22;9417;16.484;102.872;2023-04-03T12:01:48;30.30;68.50
18575;DHT22;9417;16.484;102.872;2023-04-03T12:04:11;30.30;69.70
18575;DHT22;9417;16.484;102.872;2023-04-03T12:09:04;30.10;71.10
18575;DHT22;9417;16.484;102.872;2023-04-03T12:11:28;30.10;71.10
18575;DHT22;9417;16.484;102.872;2023-04-03T12:13:37;30.00;71.80
18575;DHT22;9417;16.484;102.872;2023-04-03T12:15:54;30.00;72.10
18575;DHT22;9417;16.484;102.872;2023-04-03T12:21:00;30.00;73.00
18575;DHT22;9417;16.484;102.872;2023-04-03T12:23:25;30.00;72.80
18575;DHT22;9417;16.484;102.872;2023-04-03T12:25:49;30.00;73.90
18575;DHT22;9417;16.484;102.872;2023-04-03T12:27:56;30.00;74.20
18575;DHT22;9417;16.484;102.872;2023-04-03T12:30:21;30.00;73.60
18575;DHT22;9417;16.484;102.872;2023-04-03T12:32:47;30.00;74.30
18575;DHT22;9417;16.484;102.872;2023-04-03T12:35:19;29.90;74.80
18575;DHT22;9417;16.484;102.872;2023-04-03T12:40:17;30.00;73.70
18575;DHT22;9417;16.484;102.872;2023-04-03T12:42:47;30.00;73.00
18575;DHT22;9417;16.484;102.872;2023-04-03T12:45:06;30.00;72.80
18575;DHT22;9417;16.484;102.872;2023-04-03T12:47:23;30.00;72.70
18575;DHT22;9417;16.484;102.872;2023-04-03T12:49:37;30.00;73.60
18575;DHT22;9417;16.484;102.872;2023-04-03T12:51:46;30.00;74.20
18575;DHT22;9417;16.484;102.872;2023-04-03T12:53:58;30.00;74.50
18575;DHT22;9417;16.484;102.872;2023-04-03T12:56:22;29.90;73.90
18575;DHT22;9417;16.484;102.872;2023-04-03T12:58:30;29.90;73.00
18575;DHT22;9417;16.484;102.872;2023-04-03T13:01:03;29.90;72.50
18575;DHT22;9417;16.484;102.872;2023-04-03T13:03:22;30.00;72.40
18575;DHT22;9417;16.484;102.872;2023-04-03T13:05:31;30.00;72.30
18575;DHT22;9417;16.484;102.872;2023-04-03T13:07:40;30.00;71.90
18575;DHT22;9417;16.484;102.872;2023-04-03T13:09:57;29.90;72.10
18575;DHT22;9417;16.484;102.872;2023-04-03T13:12:12;29.90;71.30
18575;DHT22;9417;16.484;102.872;2023-04-03T13:14:21;29.90;70.60
18575;DHT22;9417;16.484;102.872;2023-04-03T13:16:30;30.00;70.50
18575;DHT22;9417;16.484;102.872;2023-04-03T13:18:38;30.00;70.30
18575;DHT22;9417;16.484;102.872;2023-04-03T13:20:48;30.00;70.00
18575;DHT22;9417;16.484;102.872;2023-04-03T13:22:58;30.00;69.80
18575;DHT22;9417;16.484;102.872;2023-04-03T13:25:09;30.00;69.60
18575;DHT22;9417;16.484;102.872;2023-04-03T13:27:18;30.00;69.50
18575;DHT22;9417;16.484;102.872;2023-04-03T13:29:28;30.00;69.10
18575;DHT22;9417;16.484;102.872;2023-04-03T13:31:37;30.00;68.90
18575;DHT22;9417;16.484;102.872;2023-04-03T13:33:54;30.00;68.70
18575;DHT22;9417;16.484;102.872;2023-04-03T13:36:05;30.00;68.30
18575;DHT22;9417;16.484;102.872;2023-04-03T13:38:23;30.00;68.20
18575;DHT22;9417;16.484;102.872;2023-04-03T13:40:31;30.00;67.70
18575;DHT22;9417;16.484;102.872;2023-04-03T13:43:05;30.10;67.70
18575;DHT22;9417;16.484;102.872;2023-04-03T13:45:19;30.00;67.50
18575;DHT22;9417;16.484;102.872;2023-04-03T13:47:38;30.00;67.70